createdAt,value
2023-02-28T00:01:07.605Z,45.84
2023-02-28T00:03:36.206Z,45.79
2023-02-28T00:06:07.471Z,46.10
2023-02-28T00:08:34.653Z,46.08
2023-02-28T00:11:15.734Z,46.22
2023-02-28T00:13:47.435Z,46.27
2023-02-28T00:16:22.809Z,46.45
2023-02-28T00:18:49.969Z,46.88
2023-02-28T00:21:18.431Z,46.89
2023-02-28T00:23:45.140Z,47.06
2023-02-28T00:26:11.817Z,46.91
2023-02-28T00:28:38.455Z,47.49
2023-02-28T00:31:05.747Z,47.19
2023-02-28T00:33:32.437Z,47.27
2023-02-28T00:36:04.869Z,47.54
2023-02-28T00:38:31.619Z,47.60
2023-02-28T00:40:59.523Z,47.98
2023-02-28T00:43:26.701Z,47.94
2023-02-28T00:45:53.311Z,48.34
2023-02-28T00:48:20.295Z,48.07
2023-02-28T00:50:50.298Z,48.20
2023-02-28T00:53:16.881Z,48.04
2023-02-28T00:55:43.442Z,48.38
2023-02-28T00:58:10.057Z,48.43
2023-02-28T01:00:36.585Z,48.53
2023-02-28T01:03:03.252Z,48.62
2023-02-28T01:05:29.882Z,48.79
2023-02-28T01:07:56.414Z,48.62
2023-02-28T01:10:23.056Z,48.95
2023-02-28T01:12:49.599Z,49.03
2023-02-28T01:15:16.297Z,48.96
2023-02-28T01:17:42.893Z,48.96
2023-02-28T01:20:10.806Z,49.12
2023-02-28T01:22:37.369Z,49.33
2023-02-28T01:25:04.483Z,49.32
2023-02-28T01:27:31.076Z,49.57
2023-02-28T01:29:57.664Z,49.44
2023-02-28T01:32:24.374Z,49.54
2023-02-28T01:34:50.989Z,49.66
2023-02-28T01:37:17.547Z,49.74
2023-02-28T01:39:44.084Z,50.22
2023-02-28T01:42:11.175Z,50.08
2023-02-28T01:45:01.697Z,50.27
2023-02-28T01:47:33.249Z,50.27
2023-02-28T01:50:01.733Z,50.13
2023-02-28T01:52:29.326Z,50.51
2023-02-28T01:55:00.348Z,51.11
2023-02-28T01:57:38.559Z,50.97
2023-02-28T02:00:09.048Z,51.17
2023-02-28T02:02:37.830Z,51.52
2023-02-28T02:05:09.723Z,51.26
2023-02-28T02:07:37.977Z,51.51
2023-02-28T02:10:18.597Z,51.67
2023-02-28T02:13:22.397Z,51.82
2023-02-28T02:16:04.153Z,52.00
2023-02-28T02:18:33.470Z,52.06
2023-02-28T02:21:17.006Z,52.46
2023-02-28T02:24:05.302Z,52.46
2023-02-28T02:27:06.553Z,53.12
2023-02-28T02:29:38.986Z,52.92
2023-02-28T02:32:29.736Z,53.42
2023-02-28T02:35:23.665Z,53.37
2023-02-28T02:38:09.771Z,53.20
2023-02-28T02:40:43.668Z,53.55
2023-02-28T02:43:34.054Z,53.69
2023-02-28T02:46:06.525Z,53.82
2023-02-28T02:48:37.457Z,54.14
2023-02-28T02:51:12.925Z,54.36
2023-02-28T02:53:47.323Z,54.23
2023-02-28T02:56:16.135Z,54.42
2023-02-28T02:58:44.909Z,54.63
2023-02-28T03:01:31.507Z,54.90
2023-02-28T03:04:02.290Z,54.91
2023-02-28T03:06:29.368Z,55.08
2023-02-28T03:08:56.088Z,55.28
2023-02-28T03:11:22.874Z,55.04
2023-02-28T03:14:04.396Z,55.42
2023-02-28T03:16:36.285Z,55.43
2023-02-28T03:19:15.155Z,55.57
2023-02-28T03:22:02.259Z,55.38
2023-02-28T03:24:56.607Z,55.34
2023-02-28T03:27:30.904Z,55.70
2023-02-28T03:30:05.220Z,56.14
2023-02-28T03:32:40.882Z,55.98
2023-02-28T03:35:32.052Z,55.86
2023-02-28T03:38:08.492Z,56.15
2023-02-28T03:40:38.076Z,56.09
2023-02-28T03:43:13.945Z,56.08
2023-02-28T03:45:42.703Z,56.56
2023-02-28T03:48:22.813Z,56.78
2023-02-28T03:50:54.595Z,56.97
2023-02-28T03:53:27.605Z,56.72
2023-02-28T03:56:19.182Z,56.79
2023-02-28T03:58:56.673Z,57.06
2023-02-28T04:01:31.699Z,56.89
2023-02-28T04:03:58.750Z,56.82
2023-02-28T04:06:25.760Z,57.22
2023-02-28T04:08:52.521Z,56.99
2023-02-28T04:11:24.202Z,57.13
2023-02-28T04:13:51.142Z,57.28
2023-02-28T04:16:33.537Z,57.20
2023-02-28T04:19:04.016Z,57.31
2023-02-28T04:21:32.356Z,57.43
2023-02-28T04:24:01.593Z,56.92
2023-02-28T04:26:36.335Z,57.22
2023-02-28T04:29:05.514Z,57.48
2023-02-28T04:31:33.040Z,57.29
2023-02-28T04:33:59.731Z,57.80
2023-02-28T04:36:26.751Z,57.84
2023-02-28T04:38:53.715Z,57.48
2023-02-28T04:41:21.120Z,57.92
2023-02-28T04:43:48.251Z,58.05
2023-02-28T04:46:14.849Z,57.99
2023-02-28T04:48:41.794Z,58.11
2023-02-28T04:51:10.971Z,58.16
2023-02-28T04:53:39.989Z,58.42
2023-02-28T04:56:07.899Z,57.75
2023-02-28T04:58:35.685Z,57.82
2023-02-28T05:01:05.095Z,58.41
2023-02-28T05:03:31.730Z,58.32
2023-02-28T05:05:58.346Z,58.10
2023-02-28T05:08:24.959Z,58.58
2023-02-28T05:10:51.694Z,58.80
2023-02-28T05:13:18.237Z,58.32
2023-02-28T05:15:44.787Z,58.75
2023-02-28T05:18:11.433Z,58.77
2023-02-28T05:20:38.841Z,59.43
2023-02-28T05:23:05.491Z,59.81
2023-02-28T05:25:32.060Z,60.23
2023-02-28T05:27:58.593Z,60.03
2023-02-28T05:30:25.190Z,60.36
2023-02-28T05:32:52.798Z,60.87
2023-02-28T05:35:19.375Z,61.15
2023-02-28T05:37:46.066Z,61.72
2023-02-28T05:40:13.135Z,61.79
2023-02-28T05:42:40.191Z,61.25
2023-02-28T05:45:08.052Z,61.63
2023-02-28T05:47:35.765Z,61.98
2023-02-28T05:50:03.111Z,62.09
2023-02-28T05:52:31.117Z,62.60
2023-02-28T05:54:57.677Z,63.06
2023-02-28T05:57:25.092Z,65.06
2023-02-28T05:59:51.869Z,67.68
2023-02-28T06:02:19.137Z,65.50
2023-02-28T06:04:46.666Z,60.57
2023-02-28T06:07:13.412Z,60.36
2023-02-28T06:09:40.293Z,59.87
2023-02-28T06:12:08.269Z,59.61
2023-02-28T06:14:35.929Z,61.43
2023-02-28T06:17:03.715Z,59.86
2023-02-28T06:19:31.200Z,58.73
2023-02-28T06:21:58.296Z,58.37
2023-02-28T06:24:29.014Z,59.68
2023-02-28T06:26:55.813Z,59.58
2023-02-28T06:29:22.754Z,60.21
2023-02-28T06:31:49.736Z,60.50
2023-02-28T06:34:17.404Z,61.19
2023-02-28T06:36:44.527Z,61.22
2023-02-28T06:39:11.109Z,61.48
2023-02-28T06:41:53.532Z,61.72
2023-02-28T06:44:21.889Z,62.00
2023-02-28T06:46:49.668Z,62.47
2023-02-28T06:49:16.787Z,62.29
2023-02-28T06:51:46.128Z,62.52
2023-02-28T06:54:13.256Z,62.89
2023-02-28T06:56:40.045Z,63.31
2023-02-28T06:59:07.013Z,63.72
2023-02-28T07:01:33.945Z,63.43
2023-02-28T07:04:01.354Z,63.72
2023-02-28T07:06:28.306Z,64.30
2023-02-28T07:08:55.451Z,64.28
2023-02-28T07:11:23.984Z,64.27
2023-02-28T07:13:57.829Z,64.33
2023-02-28T07:16:26.649Z,64.75
2023-02-28T07:18:54.458Z,64.67
2023-02-28T07:21:21.635Z,64.64
2023-02-28T07:23:48.218Z,64.36
2023-02-28T07:26:18.149Z,64.45
2023-02-28T07:28:46.958Z,64.17
2023-02-28T07:31:18.124Z,64.43
2023-02-28T07:33:45.068Z,64.42
2023-02-28T07:36:15.076Z,63.85
2023-02-28T07:38:45.230Z,64.02
2023-02-28T07:41:13.703Z,63.77
2023-02-28T07:43:40.295Z,63.65
2023-02-28T07:46:12.233Z,63.50
2023-02-28T07:48:38.932Z,62.94
2023-02-28T07:51:05.803Z,63.26
2023-02-28T07:53:32.381Z,63.03
2023-02-28T07:56:00.602Z,62.93
2023-02-28T07:58:28.688Z,62.53
2023-02-28T08:00:55.825Z,62.25
2023-02-28T08:03:24.109Z,62.21
2023-02-28T08:05:51.153Z,61.64
2023-02-28T08:08:17.920Z,61.76
2023-02-28T08:10:44.927Z,61.72
2023-02-28T08:13:11.585Z,61.41
2023-02-28T08:15:38.175Z,61.09
2023-02-28T08:18:05.312Z,61.21
2023-02-28T08:20:31.866Z,61.03
2023-02-28T08:22:58.506Z,60.99
2023-02-28T08:25:25.075Z,60.85
2023-02-28T08:27:53.255Z,59.95
2023-02-28T08:30:20.093Z,60.02
2023-02-28T08:32:46.838Z,59.34
2023-02-28T08:35:13.653Z,58.99
2023-02-28T08:37:40.229Z,59.14
2023-02-28T08:40:07.676Z,58.49
2023-02-28T08:42:34.518Z,58.35
2023-02-28T08:45:01.245Z,58.28
2023-02-28T08:47:27.798Z,57.62
2023-02-28T08:49:54.540Z,57.41
2023-02-28T08:52:21.068Z,57.08
2023-02-28T08:54:47.892Z,56.68
2023-02-28T08:57:14.640Z,56.44
2023-02-28T08:59:41.300Z,56.21
2023-02-28T09:02:13.145Z,55.91
2023-02-28T09:04:39.704Z,55.85
2023-02-28T09:07:06.314Z,55.43
2023-02-28T09:09:34.853Z,55.75
2023-02-28T09:12:01.500Z,55.40
2023-02-28T09:14:28.049Z,54.99
2023-02-28T09:16:54.681Z,54.72
2023-02-28T09:19:21.479Z,54.83
2023-02-28T09:21:47.998Z,54.23
2023-02-28T09:24:16.196Z,54.00
2023-02-28T09:26:55.861Z,54.08
2023-02-28T09:29:29.709Z,53.73
2023-02-28T09:31:58.554Z,53.31
2023-02-28T09:34:26.427Z,53.35
2023-02-28T09:36:55.776Z,53.11
2023-02-28T09:39:23.536Z,53.11
2023-02-28T09:41:53.370Z,53.08
2023-02-28T09:44:44.895Z,52.50
2023-02-28T09:47:19.241Z,51.72
2023-02-28T09:49:48.872Z,51.24
2023-02-28T09:52:20.562Z,51.22
2023-02-28T09:54:47.190Z,51.23
2023-02-28T09:57:41.276Z,50.05
2023-02-28T10:00:25.626Z,48.78
2023-02-28T10:03:40.374Z,49.08
2023-02-28T10:06:17.952Z,48.73
2023-02-28T10:09:02.893Z,48.30
2023-02-28T10:11:32.759Z,47.37
2023-02-28T10:14:06.859Z,47.41
2023-02-28T10:16:41.333Z,47.07
2023-02-28T10:19:16.107Z,46.61
2023-02-28T10:21:49.866Z,46.87
2023-02-28T10:24:28.270Z,46.42
2023-02-28T10:27:01.642Z,46.68
2023-02-28T10:29:32.782Z,45.69
2023-02-28T10:32:03.253Z,45.87
2023-02-28T10:34:29.830Z,45.75
2023-02-28T10:36:57.235Z,45.27
2023-02-28T10:39:38.488Z,45.70
2023-02-28T10:42:06.516Z,45.51
2023-02-28T10:44:33.251Z,44.90
2023-02-28T10:47:01.126Z,44.12
2023-02-28T10:49:31.457Z,44.96
2023-02-28T10:52:01.028Z,44.46
2023-02-28T10:54:36.467Z,44.67
2023-02-28T10:57:18.762Z,44.48
2023-02-28T10:59:45.991Z,44.54
2023-02-28T11:02:36.202Z,44.75
2023-02-28T11:05:03.615Z,44.88
2023-02-28T11:07:37.301Z,43.88
2023-02-28T11:10:10.119Z,44.44
2023-02-28T11:12:52.317Z,44.33
2023-02-28T11:15:22.142Z,44.09
2023-02-28T11:18:01.388Z,43.17
2023-02-28T11:20:32.628Z,43.28
2023-02-28T11:23:02.744Z,43.31
2023-02-28T11:25:38.846Z,42.57
2023-02-28T11:28:24.140Z,42.80
2023-02-28T11:31:03.707Z,42.65
2023-02-28T11:33:33.274Z,41.86
2023-02-28T11:36:05.656Z,41.05
2023-02-28T11:38:36.013Z,41.75
2023-02-28T11:41:08.669Z,42.69
2023-02-28T11:43:51.916Z,42.02
2023-02-28T11:46:28.429Z,41.74
2023-02-28T11:49:14.529Z,42.96
2023-02-28T11:52:16.522Z,42.05
2023-02-28T11:54:45.815Z,42.24
2023-02-28T11:57:18.481Z,42.90
2023-02-28T12:00:02.997Z,42.49
2023-02-28T12:03:00.122Z,43.05
2023-02-28T12:05:50.875Z,42.20
2023-02-28T12:08:23.536Z,42.72
2023-02-28T12:10:52.984Z,41.24
2023-02-28T12:13:28.072Z,42.11
2023-02-28T12:16:00.795Z,42.23
2023-02-28T12:18:39.716Z,41.98
2023-02-28T12:21:27.879Z,42.71
2023-02-28T12:24:09.472Z,40.68
2023-02-28T12:26:50.401Z,40.69
2023-02-28T12:29:35.164Z,39.83
2023-02-28T12:32:14.385Z,40.24
2023-02-28T12:34:56.170Z,40.47
2023-02-28T12:37:41.151Z,40.11
2023-02-28T12:40:20.135Z,39.73
2023-02-28T12:42:51.685Z,40.05
2023-02-28T12:45:22.836Z,40.35
2023-02-28T12:48:00.794Z,39.82
2023-02-28T12:50:28.427Z,40.14
2023-02-28T12:53:30.472Z,40.48
2023-02-28T12:56:11.934Z,40.92
2023-02-28T12:58:50.528Z,40.67
2023-02-28T13:01:44.034Z,40.37
2023-02-28T13:04:44.497Z,40.85
2023-02-28T13:07:13.966Z,40.72
2023-02-28T13:09:41.275Z,41.00
2023-02-28T13:12:17.729Z,40.93
2023-02-28T13:14:44.636Z,40.93
2023-02-28T13:17:16.680Z,40.77
2023-02-28T13:20:01.443Z,40.80
2023-02-28T13:22:40.915Z,41.15
2023-02-28T13:25:26.045Z,40.60
2023-02-28T13:27:57.880Z,40.82
2023-02-28T13:30:43.506Z,40.91
2023-02-28T13:33:32.486Z,41.27
2023-02-28T13:36:14.575Z,40.81
2023-02-28T13:38:42.856Z,40.29
2023-02-28T13:41:37.160Z,39.83
2023-02-28T13:44:29.762Z,39.98
2023-02-28T13:46:56.973Z,40.10
2023-02-28T13:49:23.874Z,40.11
2023-02-28T13:51:54.343Z,39.71
2023-02-28T13:54:39.816Z,39.49
2023-02-28T13:57:21.546Z,39.22
2023-02-28T14:00:06.545Z,39.84
2023-02-28T14:02:50.108Z,39.41
2023-02-28T14:05:19.165Z,39.77
2023-02-28T14:07:52.388Z,39.16
2023-02-28T14:10:27.379Z,39.26
2023-02-28T14:13:04.731Z,38.85
2023-02-28T14:15:34.373Z,38.94
2023-02-28T14:18:12.691Z,39.10
2023-02-28T14:20:42.013Z,38.93
2023-02-28T14:23:19.266Z,39.33
2023-02-28T14:25:54.601Z,39.29
2023-02-28T14:28:36.088Z,39.39
2023-02-28T14:31:12.362Z,39.04
2023-02-28T14:34:00.012Z,39.34
2023-02-28T14:36:38.185Z,39.36
2023-02-28T14:39:21.339Z,39.60
2023-02-28T14:41:48.195Z,39.00
2023-02-28T14:44:26.845Z,38.67
2023-02-28T14:46:56.149Z,39.14
2023-02-28T14:49:28.671Z,38.87
2023-02-28T14:52:10.633Z,38.85
2023-02-28T14:54:38.823Z,39.29
2023-02-28T14:57:06.062Z,38.90
2023-02-28T14:59:37.094Z,38.59
2023-02-28T15:02:24.168Z,38.63
2023-02-28T15:04:58.357Z,38.82
2023-02-28T15:07:29.513Z,38.29
2023-02-28T15:10:32.081Z,38.75
2023-02-28T15:13:01.981Z,37.92
2023-02-28T15:16:04.248Z,38.24
2023-02-28T15:18:49.338Z,37.93
2023-02-28T15:21:25.335Z,37.78
2023-02-28T15:24:00.253Z,37.09
2023-02-28T15:26:33.209Z,36.47
2023-02-28T15:29:07.882Z,36.18
2023-02-28T15:31:55.782Z,36.50
2023-02-28T15:34:42.273Z,36.76
2023-02-28T15:37:38.441Z,36.56
2023-02-28T15:40:28.038Z,35.98
2023-02-28T15:43:06.092Z,35.03
2023-02-28T15:45:51.335Z,34.56
2023-02-28T15:48:24.102Z,33.46
2023-02-28T15:51:12.115Z,33.32
2023-02-28T15:54:03.723Z,33.27
2023-02-28T15:56:33.125Z,33.02
2023-02-28T15:59:06.382Z,33.25
2023-02-28T16:01:39.823Z,32.78
2023-02-28T16:04:18.718Z,33.50
2023-02-28T16:06:45.827Z,34.34
2023-02-28T16:09:17.197Z,34.72
2023-02-28T16:11:53.600Z,35.47
2023-02-28T16:14:26.073Z,35.93
2023-02-28T16:16:58.202Z,36.97
2023-02-28T16:19:25.152Z,36.82
2023-02-28T16:21:52.241Z,37.36
2023-02-28T16:24:19.014Z,37.54
2023-02-28T16:26:49.250Z,38.61
2023-02-28T16:29:25.278Z,38.90
2023-02-28T16:31:51.898Z,39.03
2023-02-28T16:34:18.464Z,39.26
2023-02-28T16:36:48.128Z,39.10
2023-02-28T16:39:14.956Z,39.63
2023-02-28T16:41:46.731Z,40.02
2023-02-28T16:44:35.001Z,40.21
2023-02-28T16:47:03.764Z,40.41
2023-02-28T16:49:30.690Z,40.68
2023-02-28T16:51:57.699Z,40.68
2023-02-28T16:54:24.364Z,40.74
2023-02-28T16:56:51.275Z,41.48
2023-02-28T16:59:22.450Z,41.08
2023-02-28T17:01:49.193Z,41.30
2023-02-28T17:04:16.785Z,41.82
2023-02-28T17:06:43.626Z,41.82
2023-02-28T17:09:28.252Z,42.20
2023-02-28T17:11:57.784Z,42.43
2023-02-28T17:14:24.596Z,42.50
2023-02-28T17:16:51.390Z,42.72
2023-02-28T17:19:19.368Z,42.91
2023-02-28T17:21:45.987Z,42.88
2023-02-28T17:24:29.834Z,43.17
2023-02-28T17:26:57.022Z,43.26
2023-02-28T17:29:25.368Z,43.55
2023-02-28T17:31:52.071Z,44.17
2023-02-28T17:34:22.563Z,44.06
2023-02-28T17:36:50.970Z,44.34
2023-02-28T17:39:28.414Z,44.50
2023-02-28T17:41:56.286Z,44.91
2023-02-28T17:44:24.845Z,45.13
2023-02-28T17:46:51.955Z,45.04
2023-02-28T17:49:19.110Z,44.99
2023-02-28T17:51:45.809Z,45.14
2023-02-28T17:54:12.362Z,45.35
2023-02-28T17:56:38.908Z,45.50
2023-02-28T17:59:05.579Z,45.55
2023-02-28T18:01:32.324Z,45.66
2023-02-28T18:03:58.870Z,45.32
2023-02-28T18:06:32.336Z,45.25
2023-02-28T18:08:59.108Z,44.99
2023-02-28T18:11:27.176Z,45.19
2023-02-28T18:13:56.740Z,45.63
2023-02-28T18:16:23.668Z,45.36
2023-02-28T18:18:50.578Z,45.45
2023-02-28T18:21:17.506Z,45.65
2023-02-28T18:23:52.126Z,45.65
2023-02-28T18:26:20.077Z,45.61
2023-02-28T18:28:47.416Z,45.85
2023-02-28T18:31:17.291Z,46.17
2023-02-28T18:33:45.221Z,46.02
2023-02-28T18:36:11.829Z,45.98
2023-02-28T18:38:39.055Z,45.99
2023-02-28T18:41:07.508Z,45.94
2023-02-28T18:43:36.261Z,46.08
2023-02-28T18:46:07.591Z,46.16
2023-02-28T18:48:34.681Z,46.15
2023-02-28T18:51:19.366Z,46.13
2023-02-28T18:53:46.447Z,46.25
2023-02-28T18:56:15.808Z,46.41
2023-02-28T18:58:42.891Z,46.44
2023-02-28T19:01:29.980Z,46.64
2023-02-28T19:03:57.758Z,46.64
2023-02-28T19:06:24.462Z,46.82
2023-02-28T19:08:55.293Z,46.50
2023-02-28T19:11:22.616Z,46.40
2023-02-28T19:13:49.282Z,46.82
2023-02-28T19:16:19.085Z,47.33
2023-02-28T19:18:45.689Z,46.98
2023-02-28T19:21:14.292Z,47.28
2023-02-28T19:23:41.323Z,47.39
2023-02-28T19:26:10.144Z,47.39
2023-02-28T19:28:37.320Z,47.53
2023-02-28T19:31:04.386Z,47.56
2023-02-28T19:33:31.253Z,47.55
2023-02-28T19:36:01.462Z,47.81
2023-02-28T19:38:28.242Z,47.74
2023-02-28T19:41:02.535Z,47.72
2023-02-28T19:43:29.096Z,48.02
2023-02-28T19:45:55.675Z,47.82
2023-02-28T19:48:26.219Z,48.09
2023-02-28T19:51:01.440Z,48.35
2023-02-28T19:53:30.598Z,48.19
2023-02-28T19:55:57.289Z,48.45
2023-02-28T19:58:24.008Z,48.00
2023-02-28T20:00:50.702Z,48.29
2023-02-28T20:03:18.535Z,48.37
2023-02-28T20:05:46.188Z,48.48
2023-02-28T20:08:13.707Z,48.44
2023-02-28T20:10:40.436Z,48.30
2023-02-28T20:13:07.049Z,48.46
2023-02-28T20:15:33.790Z,48.22
2023-02-28T20:18:00.551Z,48.56
2023-02-28T20:20:27.240Z,48.63
2023-02-28T20:22:53.831Z,48.56
2023-02-28T20:25:20.968Z,48.71
2023-02-28T20:27:47.632Z,48.75
2023-02-28T20:30:14.374Z,49.08
2023-02-28T20:32:40.957Z,48.95
2023-02-28T20:35:10.660Z,49.12
2023-02-28T20:37:37.623Z,49.08
2023-02-28T20:40:04.784Z,49.08
2023-02-28T20:42:31.444Z,49.26
2023-02-28T20:44:58.016Z,49.30
2023-02-28T20:47:24.720Z,49.15
2023-02-28T20:49:51.243Z,49.53
2023-02-28T20:52:17.776Z,49.57
2023-02-28T20:54:44.575Z,49.40
2023-02-28T20:57:11.163Z,49.86
2023-02-28T20:59:39.858Z,49.76
2023-02-28T21:02:07.238Z,50.22
2023-02-28T21:04:34.027Z,49.83
2023-02-28T21:07:00.617Z,50.51
2023-02-28T21:09:28.990Z,50.79
2023-02-28T21:11:55.711Z,50.75
2023-02-28T21:14:22.393Z,51.13
2023-02-28T21:16:49.071Z,50.91
2023-02-28T21:19:16.972Z,51.01
2023-02-28T21:21:44.879Z,51.41
2023-02-28T21:24:13.116Z,51.68
2023-02-28T21:26:40.882Z,51.55
2023-02-28T21:29:07.885Z,51.62
2023-02-28T21:31:35.789Z,51.77
2023-02-28T21:34:04.920Z,51.75
2023-02-28T21:36:36.020Z,51.77
2023-02-28T21:39:09.197Z,52.04
2023-02-28T21:41:36.477Z,51.97
2023-02-28T21:44:03.264Z,52.04
2023-02-28T21:46:34.336Z,52.21
2023-02-28T21:49:01.147Z,52.05
2023-02-28T21:51:31.298Z,52.23
2023-02-28T21:53:59.656Z,52.24
2023-02-28T21:56:29.581Z,52.56
2023-02-28T21:59:00.531Z,52.53
2023-02-28T22:01:38.812Z,52.76
2023-02-28T22:04:08.935Z,53.40
2023-02-28T22:06:39.416Z,53.37
2023-02-28T22:09:07.964Z,53.39
2023-02-28T22:11:36.862Z,53.21
2023-02-28T22:14:03.437Z,53.33
2023-02-28T22:16:40.752Z,53.40
2023-02-28T22:19:16.543Z,53.31
2023-02-28T22:21:43.070Z,53.51
2023-02-28T22:24:11.345Z,53.48
2023-02-28T22:26:38.010Z,53.99
2023-02-28T22:29:04.632Z,53.88
2023-02-28T22:31:33.637Z,54.04
2023-02-28T22:34:05.962Z,54.07
2023-02-28T22:36:33.191Z,54.14
2023-02-28T22:39:01.099Z,54.30
2023-02-28T22:41:28.928Z,54.07
2023-02-28T22:43:59.300Z,54.44
2023-02-28T22:46:27.321Z,54.40
2023-02-28T22:48:53.992Z,54.23
2023-02-28T22:51:25.519Z,54.03
2023-02-28T22:53:54.094Z,54.58
2023-02-28T22:56:22.442Z,54.38
2023-02-28T22:58:50.873Z,54.23
2023-02-28T23:01:18.817Z,54.34
2023-02-28T23:03:45.611Z,54.30
2023-02-28T23:06:14.114Z,54.29
2023-02-28T23:08:41.266Z,54.41
2023-02-28T23:11:08.116Z,54.34
2023-02-28T23:13:34.952Z,54.25
2023-02-28T23:16:05.050Z,54.26
2023-02-28T23:18:31.622Z,54.76
2023-02-28T23:20:58.173Z,54.67
2023-02-28T23:23:24.865Z,54.48
2023-02-28T23:25:51.404Z,54.60
2023-02-28T23:28:17.944Z,54.69
2023-02-28T23:30:44.477Z,54.81
2023-02-28T23:33:11.021Z,54.60
2023-02-28T23:35:38.037Z,54.74
2023-02-28T23:38:05.151Z,54.68
2023-02-28T23:40:31.683Z,54.72
2023-02-28T23:42:58.153Z,54.87
2023-02-28T23:45:24.778Z,55.07
2023-02-28T23:47:51.382Z,55.05
2023-02-28T23:50:18.039Z,55.06
2023-02-28T23:52:44.581Z,55.04
2023-02-28T23:55:11.364Z,55.02
2023-02-28T23:57:37.928Z,54.95
